sensor_id;sensor_type;location;lat;lon;timestamp;temperature;humidity
34095;DHT22;20372;47.080;15.410;2023-04-03T00:01:57;6.40;82.20
34095;DHT22;20372;47.080;15.410;2023-04-03T00:04:23;6.30;82.50
34095;DHT22;20372;47.080;15.410;2023-04-03T00:06:48;6.20;82.60
34095;DHT22;20372;47.080;15.410;2023-04-03T00:09:14;6.20;83.00
34095;DHT22;20372;47.080;15.410;2023-04-03T00:11:39;6.10;82.30
34095;DHT22;20372;47.080;15.410;2023-04-03T00:14:05;6.10;82.50
34095;DHT22;20372;47.080;15.410;2023-04-03T00:16:31;6.20;82.00
34095;DHT22;20372;47.080;15.410;2023-04-03T00:18:56;6.20;82.40
34095;DHT22;20372;47.080;15.410;2023-04-03T00:21:22;6.20;82.00
34095;DHT22;20372;47.080;15.410;2023-04-03T00:23:47;6.20;82.30
34095;DHT22;20372;47.080;15.410;2023-04-03T00:26:13;6.20;81.90
34095;DHT22;20372;47.080;15.410;2023-04-03T00:28:38;6.20;82.30
34095;DHT22;20372;47.080;15.410;2023-04-03T00:31:04;6.00;82.60
34095;DHT22;20372;47.080;15.410;2023-04-03T00:33:30;6.00;83.00
34095;DHT22;20372;47.080;15.410;2023-04-03T00:35:55;6.00;82.90
34095;DHT22;20372;47.080;15.410;2023-04-03T00:38:21;6.10;82.50
34095;DHT22;20372;47.080;15.410;2023-04-03T00:40:47;5.90;83.50
34095;DHT22;20372;47.080;15.410;2023-04-03T00:43:14;5.80;84.00
34095;DHT22;20372;47.080;15.410;2023-04-03T00:45:41;5.80;84.10
34095;DHT22;20372;47.080;15.410;2023-04-03T00:48:08;5.80;84.00
34095;DHT22;20372;47.080;15.410;2023-04-03T00:50:36;5.80;84.00
34095;DHT22;20372;47.080;15.410;2023-04-03T00:53:03;5.70;84.00
34095;DHT22;20372;47.080;15.410;2023-04-03T00:55:29;5.70;84.50
34095;DHT22;20372;47.080;15.410;2023-04-03T00:57:54;5.60;84.60
34095;DHT22;20372;47.080;15.410;2023-04-03T01:00:20;5.70;84.30
34095;DHT22;20372;47.080;15.410;2023-04-03T01:02:47;5.60;85.10
34095;DHT22;20372;47.080;15.410;2023-04-03T01:05:13;5.50;85.20
34095;DHT22;20372;47.080;15.410;2023-04-03T01:07:41;5.40;85.30
34095;DHT22;20372;47.080;15.410;2023-04-03T01:10:09;5.40;85.60
34095;DHT22;20372;47.080;15.410;2023-04-03T01:12:37;5.40;85.60
34095;DHT22;20372;47.080;15.410;2023-04-03T01:15:14;5.40;86.30
34095;DHT22;20372;47.080;15.410;2023-04-03T01:25:31;5.20;87.30
34095;DHT22;20372;47.080;15.410;2023-04-03T01:27:56;5.10;87.30
34095;DHT22;20372;47.080;15.410;2023-04-03T01:30:24;5.20;87.40
34095;DHT22;20372;47.080;15.410;2023-04-03T01:32:51;5.30;87.10
34095;DHT22;20372;47.080;15.410;2023-04-03T01:35:17;5.50;86.10
34095;DHT22;20372;47.080;15.410;2023-04-03T01:37:42;5.50;85.80
34095;DHT22;20372;47.080;15.410;2023-04-03T01:40:08;5.50;85.80
34095;DHT22;20372;47.080;15.410;2023-04-03T01:42:34;5.40;86.10
34095;DHT22;20372;47.080;15.410;2023-04-03T01:44:59;5.40;86.40
34095;DHT22;20372;47.080;15.410;2023-04-03T01:47:25;5.20;87.50
34095;DHT22;20372;47.080;15.410;2023-04-03T01:49:50;5.10;87.70
34095;DHT22;20372;47.080;15.410;2023-04-03T01:52:16;5.10;87.80
34095;DHT22;20372;47.080;15.410;2023-04-03T01:54:42;5.10;87.80
34095;DHT22;20372;47.080;15.410;2023-04-03T01:57:07;4.90;88.30
34095;DHT22;20372;47.080;15.410;2023-04-03T01:59:33;5.10;87.50
34095;DHT22;20372;47.080;15.410;2023-04-03T02:01:58;5.10;86.50
34095;DHT22;20372;47.080;15.410;2023-04-03T02:04:24;5.30;85.80
34095;DHT22;20372;47.080;15.410;2023-04-03T02:06:49;5.40;85.30
34095;DHT22;20372;47.080;15.410;2023-04-03T02:09:15;5.30;84.90
34095;DHT22;20372;47.080;15.410;2023-04-03T02:11:41;5.40;83.80
34095;DHT22;20372;47.080;15.410;2023-04-03T02:14:06;5.40;83.90
34095;DHT22;20372;47.080;15.410;2023-04-03T02:16:32;5.40;83.90
34095;DHT22;20372;47.080;15.410;2023-04-03T02:18:58;5.40;84.00
34095;DHT22;20372;47.080;15.410;2023-04-03T02:21:23;5.40;83.40
34095;DHT22;20372;47.080;15.410;2023-04-03T02:23:49;5.40;83.00
34095;DHT22;20372;47.080;15.410;2023-04-03T02:26:15;5.40;83.40
34095;DHT22;20372;47.080;15.410;2023-04-03T02:28:41;5.30;83.00
34095;DHT22;20372;47.080;15.410;2023-04-03T02:31:07;5.30;83.50
34095;DHT22;20372;47.080;15.410;2023-04-03T02:33:33;5.40;82.60
34095;DHT22;20372;47.080;15.410;2023-04-03T02:35:59;5.40;82.70
34095;DHT22;20372;47.080;15.410;2023-04-03T02:38:25;5.50;82.70
34095;DHT22;20372;47.080;15.410;2023-04-03T02:40:50;5.40;82.80
34095;DHT22;20372;47.080;15.410;2023-04-03T02:43:16;5.30;82.90
34095;DHT22;20372;47.080;15.410;2023-04-03T02:45:42;5.30;83.10
34095;DHT22;20372;47.080;15.410;2023-04-03T02:48:08;5.30;82.90
34095;DHT22;20372;47.080;15.410;2023-04-03T02:50:33;5.20;83.00
34095;DHT22;20372;47.080;15.410;2023-04-03T02:52:59;5.30;82.80
34095;DHT22;20372;47.080;15.410;2023-04-03T02:55:24;5.20;83.30
34095;DHT22;20372;47.080;15.410;2023-04-03T02:57:50;5.30;82.30
34095;DHT22;20372;47.080;15.410;2023-04-03T03:00:16;5.30;82.50
34095;DHT22;20372;47.080;15.410;2023-04-03T03:02:41;5.40;82.60
34095;DHT22;20372;47.080;15.410;2023-04-03T03:05:07;5.30;82.40
34095;DHT22;20372;47.080;15.410;2023-04-03T03:07:33;5.40;81.90
34095;DHT22;20372;47.080;15.410;2023-04-03T03:09:58;5.40;81.90
34095;DHT22;20372;47.080;15.410;2023-04-03T03:12:24;5.40;81.90
34095;DHT22;20372;47.080;15.410;2023-04-03T03:14:50;5.40;81.90
34095;DHT22;20372;47.080;15.410;2023-04-03T03:17:16;5.40;81.60
34095;DHT22;20372;47.080;15.410;2023-04-03T03:19:41;5.40;81.50
34095;DHT22;20372;47.080;15.410;2023-04-03T03:22:07;5.40;81.80
34095;DHT22;20372;47.080;15.410;2023-04-03T03:24:32;5.40;81.70
34095;DHT22;20372;47.080;15.410;2023-04-03T03:26:58;5.40;82.00
34095;DHT22;20372;47.080;15.410;2023-04-03T03:29:23;5.40;81.90
34095;DHT22;20372;47.080;15.410;2023-04-03T03:31:49;5.40;82.20
34095;DHT22;20372;47.080;15.410;2023-04-03T03:34:15;5.30;82.00
34095;DHT22;20372;47.080;15.410;2023-04-03T03:36:40;5.40;81.30
34095;DHT22;20372;47.080;15.410;2023-04-03T03:39:06;5.40;81.40
34095;DHT22;20372;47.080;15.410;2023-04-03T03:41:32;5.40;81.00
34095;DHT22;20372;47.080;15.410;2023-04-03T03:43:57;5.50;80.90
34095;DHT22;20372;47.080;15.410;2023-04-03T03:46:23;5.40;81.30
34095;DHT22;20372;47.080;15.410;2023-04-03T03:48:49;5.50;81.10
34095;DHT22;20372;47.080;15.410;2023-04-03T03:51:14;5.50;81.10
34095;DHT22;20372;47.080;15.410;2023-04-03T03:53:40;5.50;81.10
34095;DHT22;20372;47.080;15.410;2023-04-03T03:56:06;5.50;80.40
34095;DHT22;20372;47.080;15.410;2023-04-03T03:58:32;5.60;80.50
34095;DHT22;20372;47.080;15.410;2023-04-03T04:01:04;5.50;81.50
34095;DHT22;20372;47.080;15.410;2023-04-03T04:03:33;5.50;80.70
34095;DHT22;20372;47.080;15.410;2023-04-03T04:05:58;5.60;80.80
34095;DHT22;20372;47.080;15.410;2023-04-03T04:08:24;5.60;80.90
34095;DHT22;20372;47.080;15.410;2023-04-03T04:10:50;5.60;80.00
34095;DHT22;20372;47.080;15.410;2023-04-03T04:13:16;5.60;79.60
34095;DHT22;20372;47.080;15.410;2023-04-03T04:15:42;5.60;80.00
34095;DHT22;20372;47.080;15.410;2023-04-03T04:18:08;5.50;80.30
34095;DHT22;20372;47.080;15.410;2023-04-03T04:20:34;5.60;80.50
34095;DHT22;20372;47.080;15.410;2023-04-03T04:22:59;5.60;80.90
34095;DHT22;20372;47.080;15.410;2023-04-03T04:25:25;5.50;81.50
34095;DHT22;20372;47.080;15.410;2023-04-03T04:27:51;5.50;81.70
34095;DHT22;20372;47.080;15.410;2023-04-03T04:30:17;5.50;82.30
34095;DHT22;20372;47.080;15.410;2023-04-03T04:32:42;5.60;81.20
34095;DHT22;20372;47.080;15.410;2023-04-03T04:35:08;5.60;81.30
34095;DHT22;20372;47.080;15.410;2023-04-03T04:37:34;5.60;81.00
34095;DHT22;20372;47.080;15.410;2023-04-03T04:40:00;5.60;81.30
34095;DHT22;20372;47.080;15.410;2023-04-03T04:42:25;5.60;81.40
34095;DHT22;20372;47.080;15.410;2023-04-03T04:44:51;5.50;81.30
34095;DHT22;20372;47.080;15.410;2023-04-03T04:47:17;5.50;81.60
34095;DHT22;20372;47.080;15.410;2023-04-03T04:49:42;5.50;81.40
34095;DHT22;20372;47.080;15.410;2023-04-03T04:52:08;5.50;81.60
34095;DHT22;20372;47.080;15.410;2023-04-03T04:54:34;5.50;81.50
34095;DHT22;20372;47.080;15.410;2023-04-03T04:56:59;5.50;81.70
34095;DHT22;20372;47.080;15.410;2023-04-03T04:59:25;5.50;81.40
34095;DHT22;20372;47.080;15.410;2023-04-03T05:01:50;5.60;81.10
34095;DHT22;20372;47.080;15.410;2023-04-03T05:04:16;5.60;81.30
34095;DHT22;20372;47.080;15.410;2023-04-03T05:06:42;5.60;81.50
34095;DHT22;20372;47.080;15.410;2023-04-03T05:09:07;5.60;81.20
34095;DHT22;20372;47.080;15.410;2023-04-03T05:11:34;5.60;81.20
34095;DHT22;20372;47.080;15.410;2023-04-03T05:14:00;5.60;80.90
34095;DHT22;20372;47.080;15.410;2023-04-03T05:16:25;5.70;80.90
34095;DHT22;20372;47.080;15.410;2023-04-03T05:18:51;5.60;80.80
34095;DHT22;20372;47.080;15.410;2023-04-03T05:21:17;5.60;80.80
34095;DHT22;20372;47.080;15.410;2023-04-03T05:23:43;5.60;80.60
34095;DHT22;20372;47.080;15.410;2023-04-03T05:26:09;5.60;80.50
34095;DHT22;20372;47.080;15.410;2023-04-03T05:28:35;5.70;80.40
34095;DHT22;20372;47.080;15.410;2023-04-03T05:31:00;5.70;80.20
34095;DHT22;20372;47.080;15.410;2023-04-03T05:33:26;5.80;80.10
34095;DHT22;20372;47.080;15.410;2023-04-03T05:35:52;5.80;79.70
34095;DHT22;20372;47.080;15.410;2023-04-03T05:38:18;5.80;79.40
34095;DHT22;20372;47.080;15.410;2023-04-03T05:40:44;5.70;79.20
34095;DHT22;20372;47.080;15.410;2023-04-03T05:43:09;5.90;79.20
34095;DHT22;20372;47.080;15.410;2023-04-03T05:45:35;6.40;78.50
34095;DHT22;20372;47.080;15.410;2023-04-03T05:48:01;6.70;76.20
34095;DHT22;20372;47.080;15.410;2023-04-03T05:50:27;6.40;76.90
34095;DHT22;20372;47.080;15.410;2023-04-03T05:52:54;6.10;77.30
34095;DHT22;20372;47.080;15.410;2023-04-03T05:55:21;6.10;77.80
34095;DHT22;20372;47.080;15.410;2023-04-03T05:57:47;6.10;78.50
34095;DHT22;20372;47.080;15.410;2023-04-03T06:00:13;6.10;78.20
34095;DHT22;20372;47.080;15.410;2023-04-03T06:02:40;6.10;78.20
34095;DHT22;20372;47.080;15.410;2023-04-03T06:05:07;6.20;78.40
34095;DHT22;20372;47.080;15.410;2023-04-03T06:07:33;6.20;78.10
34095;DHT22;20372;47.080;15.410;2023-04-03T06:09:59;6.20;78.30
34095;DHT22;20372;47.080;15.410;2023-04-03T06:12:25;6.30;79.30
34095;DHT22;20372;47.080;15.410;2023-04-03T06:14:51;6.20;78.60
34095;DHT22;20372;47.080;15.410;2023-04-03T06:17:16;6.10;78.80
34095;DHT22;20372;47.080;15.410;2023-04-03T06:19:43;6.10;79.00
34095;DHT22;20372;47.080;15.410;2023-04-03T06:22:09;6.10;79.30
34095;DHT22;20372;47.080;15.410;2023-04-03T06:24:35;6.20;78.70
34095;DHT22;20372;47.080;15.410;2023-04-03T06:27:00;6.20;78.50
34095;DHT22;20372;47.080;15.410;2023-04-03T06:29:26;6.10;79.00
34095;DHT22;20372;47.080;15.410;2023-04-03T06:31:51;6.30;79.10
34095;DHT22;20372;47.080;15.410;2023-04-03T06:34:17;6.40;78.40
34095;DHT22;20372;47.080;15.410;2023-04-03T06:36:43;6.40;78.70
34095;DHT22;20372;47.080;15.410;2023-04-03T06:39:14;6.40;78.70
34095;DHT22;20372;47.080;15.410;2023-04-03T06:41:40;6.60;78.80
34095;DHT22;20372;47.080;15.410;2023-04-03T06:44:06;6.70;78.60
34095;DHT22;20372;47.080;15.410;2023-04-03T06:46:31;6.70;78.50
34095;DHT22;20372;47.080;15.410;2023-04-03T06:48:57;6.50;78.50
34095;DHT22;20372;47.080;15.410;2023-04-03T06:51:23;6.10;79.30
34095;DHT22;20372;47.080;15.410;2023-04-03T06:53:50;6.60;78.90
34095;DHT22;20372;47.080;15.410;2023-04-03T06:56:16;7.60;78.30
34095;DHT22;20372;47.080;15.410;2023-04-03T06:58:42;6.90;77.50
34095;DHT22;20372;47.080;15.410;2023-04-03T07:01:09;6.80;78.00
34095;DHT22;20372;47.080;15.410;2023-04-03T07:03:35;6.60;78.20
34095;DHT22;20372;47.080;15.410;2023-04-03T07:06:01;6.30;78.50
34095;DHT22;20372;47.080;15.410;2023-04-03T07:08:26;6.30;79.00
34095;DHT22;20372;47.080;15.410;2023-04-03T07:10:52;6.10;79.60
34095;DHT22;20372;47.080;15.410;2023-04-03T07:13:17;6.10;79.70
34095;DHT22;20372;47.080;15.410;2023-04-03T07:15:43;6.20;79.50
34095;DHT22;20372;47.080;15.410;2023-04-03T07:18:11;6.20;79.80
34095;DHT22;20372;47.080;15.410;2023-04-03T07:20:36;6.10;79.40
34095;DHT22;20372;47.080;15.410;2023-04-03T07:23:03;6.00;79.50
34095;DHT22;20372;47.080;15.410;2023-04-03T07:25:29;6.10;79.30
34095;DHT22;20372;47.080;15.410;2023-04-03T07:27:55;6.10;79.80
34095;DHT22;20372;47.080;15.410;2023-04-03T07:30:21;6.20;78.20
34095;DHT22;20372;47.080;15.410;2023-04-03T07:32:47;6.20;78.20
34095;DHT22;20372;47.080;15.410;2023-04-03T07:35:12;6.40;78.70
34095;DHT22;20372;47.080;15.410;2023-04-03T07:37:38;6.50;78.80
34095;DHT22;20372;47.080;15.410;2023-04-03T07:40:04;6.60;78.40
34095;DHT22;20372;47.080;15.410;2023-04-03T07:42:30;6.80;75.70
34095;DHT22;20372;47.080;15.410;2023-04-03T07:44:55;7.50;74.60
34095;DHT22;20372;47.080;15.410;2023-04-03T07:47:21;7.20;75.00
34095;DHT22;20372;47.080;15.410;2023-04-03T07:49:47;6.90;75.80
34095;DHT22;20372;47.080;15.410;2023-04-03T07:52:13;7.10;76.30
34095;DHT22;20372;47.080;15.410;2023-04-03T07:54:42;7.20;75.70
34095;DHT22;20372;47.080;15.410;2023-04-03T07:57:08;6.80;75.10
34095;DHT22;20372;47.080;15.410;2023-04-03T07:59:33;6.80;74.90
34095;DHT22;20372;47.080;15.410;2023-04-03T08:01:59;6.60;75.00
34095;DHT22;20372;47.080;15.410;2023-04-03T08:04:24;6.60;74.80
34095;DHT22;20372;47.080;15.410;2023-04-03T08:06:51;6.70;74.90
34095;DHT22;20372;47.080;15.410;2023-04-03T08:09:17;6.70;74.80
34095;DHT22;20372;47.080;15.410;2023-04-03T08:11:44;7.10;74.10
34095;DHT22;20372;47.080;15.410;2023-04-03T08:14:10;7.00;74.60
34095;DHT22;20372;47.080;15.410;2023-04-03T08:16:41;6.90;73.50
34095;DHT22;20372;47.080;15.410;2023-04-03T08:19:07;6.80;73.70
34095;DHT22;20372;47.080;15.410;2023-04-03T08:21:33;6.70;72.50
34095;DHT22;20372;47.080;15.410;2023-04-03T08:23:58;7.00;73.10
34095;DHT22;20372;47.080;15.410;2023-04-03T08:26:24;7.00;73.10
34095;DHT22;20372;47.080;15.410;2023-04-03T08:28:52;7.10;73.70
34095;DHT22;20372;47.080;15.410;2023-04-03T08:31:18;7.10;73.20
34095;DHT22;20372;47.080;15.410;2023-04-03T08:33:45;7.30;72.20
34095;DHT22;20372;47.080;15.410;2023-04-03T08:36:21;7.40;71.70
34095;DHT22;20372;47.080;15.410;2023-04-03T08:38:48;7.30;72.20
34095;DHT22;20372;47.080;15.410;2023-04-03T08:41:31;7.10;70.90
34095;DHT22;20372;47.080;15.410;2023-04-03T08:49:18;7.20;70.00
34095;DHT22;20372;47.080;15.410;2023-04-03T08:51:47;7.30;67.60
34095;DHT22;20372;47.080;15.410;2023-04-03T08:54:20;7.60;65.50
34095;DHT22;20372;47.080;15.410;2023-04-03T08:56:47;7.40;65.90
34095;DHT22;20372;47.080;15.410;2023-04-03T08:59:14;7.40;65.80
34095;DHT22;20372;47.080;15.410;2023-04-03T09:01:44;7.30;66.00
34095;DHT22;20372;47.080;15.410;2023-04-03T09:04:11;7.50;65.00
34095;DHT22;20372;47.080;15.410;2023-04-03T09:06:37;7.40;63.10
34095;DHT22;20372;47.080;15.410;2023-04-03T09:09:15;7.50;63.90
34095;DHT22;20372;47.080;15.410;2023-04-03T09:12:23;7.30;62.80
34095;DHT22;20372;47.080;15.410;2023-04-03T09:22:15;7.20;61.70
34095;DHT22;20372;47.080;15.410;2023-04-03T09:24:42;7.10;61.50
34095;DHT22;20372;47.080;15.410;2023-04-03T09:27:10;7.30;61.50
34095;DHT22;20372;47.080;15.410;2023-04-03T09:29:40;7.30;61.70
34095;DHT22;20372;47.080;15.410;2023-04-03T09:32:29;7.20;62.00
34095;DHT22;20372;47.080;15.410;2023-04-03T09:34:54;7.10;62.40
34095;DHT22;20372;47.080;15.410;2023-04-03T09:37:33;7.00;62.00
34095;DHT22;20372;47.080;15.410;2023-04-03T09:39:59;7.00;62.00
34095;DHT22;20372;47.080;15.410;2023-04-03T09:42:25;7.20;61.50
34095;DHT22;20372;47.080;15.410;2023-04-03T09:44:54;7.40;61.70
34095;DHT22;20372;47.080;15.410;2023-04-03T09:47:27;7.40;61.40
34095;DHT22;20372;47.080;15.410;2023-04-03T09:50:39;7.90;59.80
34095;DHT22;20372;47.080;15.410;2023-04-03T09:52:49;8.50;59.80
34095;DHT22;20372;47.080;15.410;2023-04-03T09:55:21;8.90;60.70
34095;DHT22;20372;47.080;15.410;2023-04-03T09:57:56;9.40;59.40
34095;DHT22;20372;47.080;15.410;2023-04-03T10:02:52;8.20;59.60
34095;DHT22;20372;47.080;15.410;2023-04-03T10:05:35;8.70;59.80
34095;DHT22;20372;47.080;15.410;2023-04-03T10:08:08;9.50;60.00
34095;DHT22;20372;47.080;15.410;2023-04-03T10:10:33;9.50;61.50
34095;DHT22;20372;47.080;15.410;2023-04-03T10:13:03;8.90;60.50
34095;DHT22;20372;47.080;15.410;2023-04-03T10:15:29;9.10;61.60
34095;DHT22;20372;47.080;15.410;2023-04-03T10:17:57;8.60;62.10
34095;DHT22;20372;47.080;15.410;2023-04-03T10:26:08;9.10;62.50
34095;DHT22;20372;47.080;15.410;2023-04-03T10:46:44;8.70;62.60
34095;DHT22;20372;47.080;15.410;2023-04-03T10:51:48;8.90;63.00
34095;DHT22;20372;47.080;15.410;2023-04-03T10:54:26;8.50;62.10
34095;DHT22;20372;47.080;15.410;2023-04-03T10:57:05;8.60;62.10
34095;DHT22;20372;47.080;15.410;2023-04-03T10:59:41;8.20;60.70
34095;DHT22;20372;47.080;15.410;2023-04-03T11:04:59;7.90;61.50
34095;DHT22;20372;47.080;15.410;2023-04-03T11:07:26;8.50;62.20
34095;DHT22;20372;47.080;15.410;2023-04-03T11:12:56;9.00;58.70
34095;DHT22;20372;47.080;15.410;2023-04-03T11:15:24;8.40;59.90
34095;DHT22;20372;47.080;15.410;2023-04-03T11:17:55;8.70;60.60
34095;DHT22;20372;47.080;15.410;2023-04-03T11:25:36;9.10;59.40
34095;DHT22;20372;47.080;15.410;2023-04-03T11:28:05;9.10;59.40
34095;DHT22;20372;47.080;15.410;2023-04-03T11:30:39;8.60;59.40
34095;DHT22;20372;47.080;15.410;2023-04-03T11:35:52;9.70;60.50
34095;DHT22;20372;47.080;15.410;2023-04-03T11:38:21;9.90;58.90
34095;DHT22;20372;47.080;15.410;2023-04-03T11:40:49;9.70;59.20
34095;DHT22;20372;47.080;15.410;2023-04-03T11:45:56;9.30;58.70
34095;DHT22;20372;47.080;15.410;2023-04-03T11:50:59;10.10;57.90
34095;DHT22;20372;47.080;15.410;2023-04-03T11:53:34;9.60;58.30
34095;DHT22;20372;47.080;15.410;2023-04-03T11:56:02;8.90;59.40
34095;DHT22;20372;47.080;15.410;2023-04-03T11:58:29;8.80;58.90
34095;DHT22;20372;47.080;15.410;2023-04-03T12:05:53;8.70;59.00
34095;DHT22;20372;47.080;15.410;2023-04-03T12:08:27;8.50;59.00
34095;DHT22;20372;47.080;15.410;2023-04-03T12:11:29;8.40;58.80
34095;DHT22;20372;47.080;15.410;2023-04-03T12:16:24;9.10;58.20
34095;DHT22;20372;47.080;15.410;2023-04-03T12:21:22;9.00;58.60
34095;DHT22;20372;47.080;15.410;2023-04-03T12:29:20;8.90;60.20
34095;DHT22;20372;47.080;15.410;2023-04-03T12:32:06;9.00;60.40
34095;DHT22;20372;47.080;15.410;2023-04-03T12:34:42;9.30;59.40
34095;DHT22;20372;47.080;15.410;2023-04-03T12:37:17;9.90;59.80
34095;DHT22;20372;47.080;15.410;2023-04-03T12:39:51;10.10;58.00
34095;DHT22;20372;47.080;15.410;2023-04-03T12:45:24;8.90;58.50
34095;DHT22;20372;47.080;15.410;2023-04-03T12:47:49;8.70;59.10
34095;DHT22;20372;47.080;15.410;2023-04-03T12:50:27;9.20;57.20
34095;DHT22;20372;47.080;15.410;2023-04-03T12:53:02;9.10;57.90
34095;DHT22;20372;47.080;15.410;2023-04-03T12:55:29;8.80;58.00
34095;DHT22;20372;47.080;15.410;2023-04-03T12:57:54;8.80;57.50
34095;DHT22;20372;47.080;15.410;2023-04-03T13:00:34;9.20;57.90
34095;DHT22;20372;47.080;15.410;2023-04-03T13:03:03;9.00;56.90
34095;DHT22;20372;47.080;15.410;2023-04-03T13:05:30;8.70;57.30
34095;DHT22;20372;47.080;15.410;2023-04-03T13:08:00;9.20;57.80
34095;DHT22;20372;47.080;15.410;2023-04-03T13:10:28;9.90;58.10
34095;DHT22;20372;47.080;15.410;2023-04-03T13:12:58;10.00;57.70
34095;DHT22;20372;47.080;15.410;2023-04-03T13:15:29;10.30;57.70
34095;DHT22;20372;47.080;15.410;2023-04-03T13:17:55;10.30;58.50
34095;DHT22;20372;47.080;15.410;2023-04-03T13:20:29;10.50;57.80
34095;DHT22;20372;47.080;15.410;2023-04-03T13:25:20;8.40;58.60
34095;DHT22;20372;47.080;15.410;2023-04-03T13:27:47;8.50;58.70
34095;DHT22;20372;47.080;15.410;2023-04-03T13:30:53;8.30;58.00
34095;DHT22;20372;47.080;15.410;2023-04-03T13:33:26;8.40;58.90
34095;DHT22;20372;47.080;15.410;2023-04-03T13:36:02;8.60;58.10
34095;DHT22;20372;47.080;15.410;2023-04-03T13:38:30;8.50;58.90
34095;DHT22;20372;47.080;15.410;2023-04-03T13:41:04;8.60;59.10
34095;DHT22;20372;47.080;15.410;2023-04-03T13:43:32;8.80;59.70
34095;DHT22;20372;47.080;15.410;2023-04-03T13:46:03;9.10;59.00
34095;DHT22;20372;47.080;15.410;2023-04-03T13:48:37;9.20;58.60
34095;DHT22;20372;47.080;15.410;2023-04-03T13:51:16;9.20;58.50
34095;DHT22;20372;47.080;15.410;2023-04-03T13:53:45;9.30;59.40
34095;DHT22;20372;47.080;15.410;2023-04-03T13:56:18;8.90;58.80
34095;DHT22;20372;47.080;15.410;2023-04-03T14:01:43;8.90;58.80
34095;DHT22;20372;47.080;15.410;2023-04-03T14:04:15;8.50;57.30
34095;DHT22;20372;47.080;15.410;2023-04-03T14:06:41;8.40;58.00
34095;DHT22;20372;47.080;15.410;2023-04-03T14:09:07;8.70;55.50
34095;DHT22;20372;47.080;15.410;2023-04-03T14:11:32;8.60;57.60
34095;DHT22;20372;47.080;15.410;2023-04-03T14:14:00;9.20;58.60
34095;DHT22;20372;47.080;15.410;2023-04-03T14:16:28;9.40;57.30
34095;DHT22;20372;47.080;15.410;2023-04-03T14:18:55;9.50;57.40
34095;DHT22;20372;47.080;15.410;2023-04-03T14:21:20;9.40;56.20
34095;DHT22;20372;47.080;15.410;2023-04-03T14:23:46;9.50;58.50
34095;DHT22;20372;47.080;15.410;2023-04-03T14:26:13;9.30;56.30
34095;DHT22;20372;47.080;15.410;2023-04-03T14:28:41;8.80;56.60
34095;DHT22;20372;47.080;15.410;2023-04-03T14:31:09;9.00;57.60
34095;DHT22;20372;47.080;15.410;2023-04-03T14:33:36;9.50;57.50
34095;DHT22;20372;47.080;15.410;2023-04-03T14:36:05;9.00;56.80
34095;DHT22;20372;47.080;15.410;2023-04-03T14:38:36;8.70;56.10
34095;DHT22;20372;47.080;15.410;2023-04-03T14:41:02;8.30;56.30
34095;DHT22;20372;47.080;15.410;2023-04-03T14:43:27;8.00;57.30
34095;DHT22;20372;47.080;15.410;2023-04-03T14:45:53;8.50;57.50
34095;DHT22;20372;47.080;15.410;2023-04-03T14:48:22;8.70;56.20
34095;DHT22;20372;47.080;15.410;2023-04-03T14:50:49;8.90;55.60
34095;DHT22;20372;47.080;15.410;2023-04-03T14:53:16;8.90;55.60
34095;DHT22;20372;47.080;15.410;2023-04-03T14:55:45;9.20;55.30
34095;DHT22;20372;47.080;15.410;2023-04-03T14:58:12;9.50;55.30
34095;DHT22;20372;47.080;15.410;2023-04-03T15:00:38;8.50;55.60
34095;DHT22;20372;47.080;15.410;2023-04-03T15:03:03;8.50;55.80
34095;DHT22;20372;47.080;15.410;2023-04-03T15:05:29;8.70;56.20
34095;DHT22;20372;47.080;15.410;2023-04-03T15:07:55;8.40;55.80
34095;DHT22;20372;47.080;15.410;2023-04-03T15:10:25;8.40;56.50
34095;DHT22;20372;47.080;15.410;2023-04-03T15:12:51;8.70;56.70
34095;DHT22;20372;47.080;15.410;2023-04-03T15:15:18;8.50;56.60
34095;DHT22;20372;47.080;15.410;2023-04-03T15:17:45;8.30;56.20
34095;DHT22;20372;47.080;15.410;2023-04-03T15:22:38;8.10;58.10
34095;DHT22;20372;47.080;15.410;2023-04-03T15:25:04;8.10;57.40
34095;DHT22;20372;47.080;15.410;2023-04-03T15:27:30;8.20;58.20
34095;DHT22;20372;47.080;15.410;2023-04-03T15:29:55;8.00;57.30
34095;DHT22;20372;47.080;15.410;2023-04-03T15:32:21;7.90;57.70
34095;DHT22;20372;47.080;15.410;2023-04-03T15:34:46;8.20;58.10
34095;DHT22;20372;47.080;15.410;2023-04-03T15:37:12;8.20;57.80
34095;DHT22;20372;47.080;15.410;2023-04-03T15:39:38;8.10;57.60
34095;DHT22;20372;47.080;15.410;2023-04-03T15:42:03;7.80;57.80
34095;DHT22;20372;47.080;15.410;2023-04-03T15:44:32;7.70;57.70
34095;DHT22;20372;47.080;15.410;2023-04-03T15:46:58;7.80;57.40
34095;DHT22;20372;47.080;15.410;2023-04-03T15:49:25;7.80;57.70
34095;DHT22;20372;47.080;15.410;2023-04-03T15:51:51;8.00;57.50
34095;DHT22;20372;47.080;15.410;2023-04-03T15:54:17;8.00;57.80
34095;DHT22;20372;47.080;15.410;2023-04-03T15:56:42;8.00;57.80
34095;DHT22;20372;47.080;15.410;2023-04-03T15:59:08;8.10;57.90
34095;DHT22;20372;47.080;15.410;2023-04-03T16:01:34;8.00;57.50
34095;DHT22;20372;47.080;15.410;2023-04-03T16:04:01;7.70;58.30
34095;DHT22;20372;47.080;15.410;2023-04-03T16:06:26;8.00;58.30
34095;DHT22;20372;47.080;15.410;2023-04-03T16:08:54;7.80;58.00
34095;DHT22;20372;47.080;15.410;2023-04-03T16:11:23;7.60;58.10
34095;DHT22;20372;47.080;15.410;2023-04-03T16:13:49;7.70;58.80
34095;DHT22;20372;47.080;15.410;2023-04-03T16:16:14;7.70;58.50
34095;DHT22;20372;47.080;15.410;2023-04-03T16:18:40;7.40;58.60
34095;DHT22;20372;47.080;15.410;2023-04-03T16:21:06;7.20;59.40
34095;DHT22;20372;47.080;15.410;2023-04-03T16:23:33;7.00;59.30
34095;DHT22;20372;47.080;15.410;2023-04-03T16:25:59;6.80;60.10
34095;DHT22;20372;47.080;15.410;2023-04-03T16:28:24;6.60;59.70
34095;DHT22;20372;47.080;15.410;2023-04-03T16:30:50;6.40;59.90
34095;DHT22;20372;47.080;15.410;2023-04-03T16:33:16;6.40;60.10
34095;DHT22;20372;47.080;15.410;2023-04-03T16:35:42;6.40;60.30
34095;DHT22;20372;47.080;15.410;2023-04-03T16:38:08;6.40;60.70
34095;DHT22;20372;47.080;15.410;2023-04-03T16:40:34;6.40;60.80
34095;DHT22;20372;47.080;15.410;2023-04-03T16:43:00;6.30;60.60
34095;DHT22;20372;47.080;15.410;2023-04-03T16:45:26;6.20;60.60
34095;DHT22;20372;47.080;15.410;2023-04-03T16:47:51;6.10;60.80
34095;DHT22;20372;47.080;15.410;2023-04-03T16:50:17;6.00;60.60
34095;DHT22;20372;47.080;15.410;2023-04-03T16:52:45;5.90;60.40
34095;DHT22;20372;47.080;15.410;2023-04-03T16:55:11;5.80;60.10
34095;DHT22;20372;47.080;15.410;2023-04-03T16:57:36;5.80;59.80
34095;DHT22;20372;47.080;15.410;2023-04-03T17:00:02;5.70;59.60
34095;DHT22;20372;47.080;15.410;2023-04-03T17:02:28;5.70;59.70
34095;DHT22;20372;47.080;15.410;2023-04-03T17:04:54;5.60;59.50
34095;DHT22;20372;47.080;15.410;2023-04-03T17:07:20;5.60;59.80